Port Isabel, Texas
Current Conditions -  °F | °C
As of 8:55 PM on Tuesday 21 Oct 2014 (Local Time) from KSPL Reporting Station
Clear Clear  
Wind Chill: 81°   Ceiling: Unl
Heat Index: 85°   Visibility: 5mi
Dew Point: 72°   Wind: 17mph
Humidity: 74%   Direction: 60°ENE
Pressure: 29.93"   Gusts: 23mph
Location:  26.07°N, 97.21°W
Report Text: KSPL 220155Z AUTO 06015G20KT 5SM CLR 27/22 A2993 RMK AO1
Loading
Personal Weather Stations






























Interactive Weather Map
Tropical Storm Tracking
New forecast layout! Learn more

10-Day Weather Forecast

Advertisements
Track Severe Weather on mobile